createdAt,value
2022-10-11T00:00:39.184Z,81.53
2022-10-11T00:03:41.508Z,81.33
2022-10-11T00:06:43.908Z,81.47
2022-10-11T00:09:46.640Z,81.30
2022-10-11T00:12:49.581Z,80.63
2022-10-11T00:15:52.244Z,80.51
2022-10-11T00:18:54.664Z,80.91
2022-10-11T00:21:57.030Z,81.30
2022-10-11T00:24:59.510Z,81.55
2022-10-11T00:28:01.905Z,81.42
2022-10-11T00:31:13.643Z,81.68
2022-10-11T00:34:18.097Z,81.33
2022-10-11T00:37:20.615Z,81.22
2022-10-11T00:40:23.028Z,80.74
2022-10-11T00:43:29.106Z,80.87
2022-10-11T00:46:31.875Z,80.35
2022-10-11T00:49:37.889Z,80.58
2022-10-11T00:52:49.902Z,79.71
2022-10-11T00:56:00.335Z,79.58
2022-10-11T00:59:06.427Z,80.36
2022-10-11T01:02:09.925Z,80.36
2022-10-11T01:05:32.209Z,80.55
2022-10-11T01:08:34.674Z,80.06
2022-10-11T01:11:41.188Z,80.40
2022-10-11T01:14:46.580Z,81.15
2022-10-11T01:18:09.172Z,81.66
2022-10-11T01:21:26.092Z,81.85
2022-10-11T01:24:43.484Z,80.75
2022-10-11T01:27:55.752Z,80.38
2022-10-11T01:31:04.788Z,80.89
2022-10-11T01:34:33.627Z,80.45
2022-10-11T01:37:53.730Z,80.23
2022-10-11T01:41:00.239Z,80.69
2022-10-11T01:44:05.380Z,80.17
2022-10-11T01:47:07.740Z,79.95
2022-10-11T01:50:46.276Z,80.19
2022-10-11T01:54:07.367Z,80.16
2022-10-11T01:57:28.237Z,80.46
2022-10-11T02:01:00.585Z,81.08
2022-10-11T02:04:37.603Z,80.97
2022-10-11T02:07:57.649Z,81.60
2022-10-11T02:11:20.230Z,81.68
2022-10-11T02:14:26.963Z,82.22
2022-10-11T02:17:35.650Z,82.23
2022-10-11T02:20:41.344Z,83.02
2022-10-11T02:23:53.463Z,83.17
2022-10-11T02:26:58.831Z,83.46
2022-10-11T02:30:04.115Z,83.30
2022-10-11T02:33:11.278Z,83.60
2022-10-11T02:36:55.619Z,84.02
2022-10-11T02:40:07.072Z,84.68
2022-10-11T02:43:17.973Z,84.30
2022-10-11T02:46:21.554Z,85.01
2022-10-11T02:49:23.980Z,85.11
2022-10-11T02:52:27.140Z,85.22
2022-10-11T02:55:29.497Z,85.05
2022-10-11T02:58:31.921Z,85.25
2022-10-11T03:01:34.389Z,86.05
2022-10-11T03:04:36.884Z,86.23
2022-10-11T03:07:39.238Z,87.18
2022-10-11T03:10:42.516Z,86.80
2022-10-11T03:13:44.939Z,86.80
2022-10-11T03:16:47.270Z,86.69
2022-10-11T03:19:49.859Z,87.35
2022-10-11T03:22:52.188Z,87.12
2022-10-11T03:25:54.621Z,87.10
2022-10-11T03:28:57.109Z,87.57
2022-10-11T03:31:59.545Z,87.28
2022-10-11T03:35:01.898Z,87.36
2022-10-11T03:38:04.334Z,88.21
2022-10-11T03:41:07.127Z,87.98
2022-10-11T03:44:09.466Z,88.38
2022-10-11T03:47:12.782Z,88.33
2022-10-11T03:50:15.170Z,88.34
2022-10-11T03:53:17.737Z,88.26
2022-10-11T03:56:20.100Z,88.06
2022-10-11T03:59:22.429Z,87.44
2022-10-11T04:02:25.085Z,87.23
2022-10-11T04:05:27.521Z,86.15
2022-10-11T04:08:29.986Z,86.60
2022-10-11T04:11:32.785Z,86.15
2022-10-11T04:14:35.170Z,86.80
2022-10-11T04:17:37.515Z,85.64
2022-10-11T04:20:40.091Z,85.95
2022-10-11T04:23:42.490Z,86.33
2022-10-11T04:26:44.886Z,86.12
2022-10-11T04:29:47.189Z,86.40
2022-10-11T04:32:49.567Z,86.41
2022-10-11T04:35:56.203Z,86.44
2022-10-11T04:38:58.684Z,86.30
2022-10-11T04:42:01.001Z,85.96
2022-10-11T04:45:03.683Z,84.83
2022-10-11T04:48:06.391Z,85.37
2022-10-11T04:51:08.854Z,86.57
2022-10-11T04:54:11.222Z,87.94
2022-10-11T04:57:13.550Z,89.48
2022-10-11T05:00:16.284Z,88.64
2022-10-11T05:03:18.600Z,87.84
2022-10-11T05:06:21.162Z,88.46
2022-10-11T05:09:24.060Z,88.79
2022-10-11T05:12:27.050Z,89.63
2022-10-11T05:15:29.695Z,89.62
2022-10-11T05:18:32.165Z,89.52
2022-10-11T05:21:46.447Z,89.38
2022-10-11T05:24:54.857Z,89.31
2022-10-11T05:27:57.638Z,88.71
2022-10-11T05:31:00.414Z,87.01
2022-10-11T05:34:02.989Z,86.60
2022-10-11T05:37:05.538Z,86.21
2022-10-11T05:40:08.807Z,86.96
2022-10-11T05:43:12.012Z,85.98
2022-10-11T05:46:15.265Z,84.42
2022-10-11T05:49:17.833Z,84.80
2022-10-11T05:52:21.554Z,85.04
2022-10-11T05:55:24.480Z,85.29
2022-10-11T05:58:27.212Z,85.11
2022-10-11T06:03:32.074Z,84.68
2022-10-11T06:06:53.251Z,84.35
2022-10-11T06:10:14.210Z,85.60
2022-10-11T06:13:35.885Z,82.12
2022-10-11T06:16:56.936Z,82.89
2022-10-11T06:20:18.028Z,82.18
2022-10-11T06:23:39.210Z,81.92
2022-10-11T06:27:00.484Z,82.18
2022-10-11T06:30:21.564Z,82.16
2022-10-11T06:33:42.472Z,81.58
2022-10-11T06:37:03.684Z,81.66
2022-10-11T06:40:24.523Z,80.95
2022-10-11T06:43:46.112Z,81.21
2022-10-11T06:47:07.766Z,80.09
2022-10-11T06:50:54.518Z,79.47
2022-10-11T06:54:10.191Z,77.75
2022-10-11T06:57:30.982Z,77.98
2022-10-11T07:00:51.879Z,77.80
2022-10-11T07:04:12.827Z,78.48
2022-10-11T07:07:33.592Z,77.19
2022-10-11T07:11:00.113Z,76.77
2022-10-11T07:14:21.140Z,73.82
2022-10-11T07:17:42.318Z,72.78
2022-10-11T07:21:04.454Z,71.49
2022-10-11T07:24:25.740Z,71.19
2022-10-11T07:27:46.540Z,72.42
2022-10-11T07:31:16.690Z,74.24
2022-10-11T07:34:37.629Z,73.89
2022-10-11T07:37:58.599Z,73.64
2022-10-11T07:41:19.911Z,74.15
2022-10-11T07:44:40.888Z,74.34
2022-10-11T07:48:01.853Z,74.24
2022-10-11T07:51:24.591Z,74.37
2022-10-11T07:54:48.726Z,75.63
2022-10-11T07:58:11.154Z,73.93
2022-10-11T08:01:33.189Z,73.16
2022-10-11T08:04:54.391Z,74.12
2022-10-11T08:08:15.753Z,72.30
2022-10-11T08:11:37.727Z,72.76
2022-10-11T08:14:58.937Z,72.20
2022-10-11T08:18:20.268Z,71.20
2022-10-11T08:21:41.404Z,71.01
2022-10-11T08:25:02.475Z,70.21
2022-10-11T08:28:23.221Z,72.41
2022-10-11T08:31:47.326Z,70.42
2022-10-11T08:35:08.636Z,69.92
2022-10-11T08:38:29.718Z,68.87
2022-10-11T08:42:11.329Z,69.54
2022-10-11T08:45:44.345Z,70.35
2022-10-11T08:49:07.545Z,70.17
2022-10-11T08:52:34.818Z,71.05
2022-10-11T08:55:56.080Z,72.19
2022-10-11T08:59:39.966Z,71.18
2022-10-11T09:03:29.760Z,68.90
2022-10-11T09:07:26.816Z,69.52
2022-10-11T09:10:48.157Z,67.89
2022-10-11T09:13:56.503Z,67.22
2022-10-11T09:17:37.562Z,67.13
2022-10-11T09:20:40.236Z,64.68
2022-10-11T09:23:56.715Z,65.46
2022-10-11T09:27:09.929Z,65.67
2022-10-11T09:30:14.883Z,63.14
2022-10-11T09:33:18.807Z,63.73
2022-10-11T09:36:34.311Z,63.40
2022-10-11T09:39:42.199Z,60.89
2022-10-11T09:42:44.843Z,61.49
2022-10-11T09:45:49.616Z,60.27
2022-10-11T09:48:56.271Z,59.40
2022-10-11T09:52:02.440Z,58.88
2022-10-11T09:55:05.315Z,59.39
2022-10-11T09:58:40.307Z,59.00
2022-10-11T10:01:42.782Z,59.14
2022-10-11T10:05:07.135Z,57.40
2022-10-11T10:08:09.727Z,57.79
2022-10-11T10:11:12.743Z,58.21
2022-10-11T10:14:21.968Z,57.50
2022-10-11T10:17:24.410Z,56.96
2022-10-11T10:20:36.146Z,56.23
2022-10-11T10:23:38.873Z,55.01
2022-10-11T10:26:41.359Z,55.65
2022-10-11T10:30:00.666Z,55.93
2022-10-11T10:33:10.916Z,55.82
2022-10-11T10:36:21.842Z,54.44
2022-10-11T10:39:33.325Z,54.32
2022-10-11T10:42:36.411Z,54.46
2022-10-11T10:45:56.641Z,55.51
2022-10-11T10:49:51.887Z,56.21
2022-10-11T10:52:55.470Z,55.65
2022-10-11T10:56:22.224Z,57.02
2022-10-11T11:00:05.897Z,58.11
2022-10-11T11:03:47.891Z,57.12
2022-10-11T11:06:57.210Z,57.13
2022-10-11T11:10:32.824Z,55.69
2022-10-11T11:14:12.056Z,56.11
2022-10-11T11:17:22.898Z,56.61
2022-10-11T11:20:59.830Z,58.52
2022-10-11T11:24:08.879Z,55.90
2022-10-11T11:27:40.973Z,56.84
2022-10-11T11:31:04.806Z,57.10
2022-10-11T11:34:45.783Z,56.79
2022-10-11T11:37:54.099Z,57.57
2022-10-11T11:41:09.183Z,56.91
2022-10-11T11:44:23.852Z,56.25
2022-10-11T11:47:36.531Z,56.55
2022-10-11T11:50:43.818Z,57.83
2022-10-11T11:54:19.316Z,57.48
2022-10-11T11:57:38.871Z,58.62
2022-10-11T12:01:03.240Z,57.48
2022-10-11T12:04:36.107Z,58.12
2022-10-11T12:07:58.669Z,55.06
2022-10-11T12:11:08.653Z,55.16
2022-10-11T12:14:41.501Z,55.23
2022-10-11T12:17:56.058Z,57.06
2022-10-11T12:21:08.590Z,54.83
2022-10-11T12:24:21.542Z,56.73
2022-10-11T12:27:43.236Z,56.17
2022-10-11T12:30:50.768Z,56.32
2022-10-11T12:34:15.067Z,56.14
2022-10-11T12:37:17.525Z,56.36
2022-10-11T12:40:41.972Z,55.36
2022-10-11T12:43:50.495Z,56.20
2022-10-11T12:46:57.733Z,55.86
2022-10-11T12:50:27.983Z,57.12
2022-10-11T12:53:33.380Z,57.86
2022-10-11T12:56:42.141Z,59.26
2022-10-11T12:59:45.572Z,59.36
2022-10-11T13:02:49.493Z,59.81
2022-10-11T13:05:56.160Z,60.50
2022-10-11T13:09:09.695Z,60.54
2022-10-11T13:12:19.470Z,61.55
2022-10-11T13:15:24.293Z,61.08
2022-10-11T13:18:27.178Z,60.86
2022-10-11T13:21:34.641Z,61.71
2022-10-11T13:24:39.645Z,63.17
2022-10-11T13:27:42.741Z,62.33
2022-10-11T13:30:48.628Z,62.21
2022-10-11T13:33:55.135Z,63.03
2022-10-11T13:36:58.618Z,63.46
2022-10-11T13:40:01.197Z,63.49
2022-10-11T13:43:05.808Z,63.19
2022-10-11T13:46:17.507Z,63.42
2022-10-11T13:49:29.323Z,63.67
2022-10-11T13:52:32.484Z,63.86
2022-10-11T13:55:47.663Z,64.66
2022-10-11T13:58:52.755Z,65.13
2022-10-11T14:02:01.271Z,65.25
2022-10-11T14:05:03.817Z,65.29
2022-10-11T14:08:19.554Z,65.95
2022-10-11T14:11:39.850Z,66.39
2022-10-11T14:14:43.407Z,66.57
2022-10-11T14:17:52.504Z,66.12
2022-10-11T14:20:54.907Z,66.60
2022-10-11T14:24:00.844Z,67.32
2022-10-11T14:27:05.777Z,67.32
2022-10-11T14:30:27.467Z,68.17
2022-10-11T14:33:30.224Z,68.23
2022-10-11T14:36:32.696Z,68.64
2022-10-11T14:39:35.342Z,69.06
2022-10-11T14:42:37.677Z,68.87
2022-10-11T14:45:40.125Z,69.73
2022-10-11T14:48:54.953Z,69.55
2022-10-11T14:51:59.388Z,70.48
2022-10-11T14:55:02.218Z,70.76
2022-10-11T14:58:06.399Z,71.21
2022-10-11T15:01:16.160Z,71.58
2022-10-11T15:04:24.224Z,71.47
2022-10-11T15:07:26.740Z,71.58
2022-10-11T15:10:35.991Z,72.32
2022-10-11T15:13:38.453Z,72.35
2022-10-11T15:16:41.385Z,72.62
2022-10-11T15:19:43.764Z,73.00
2022-10-11T15:22:46.161Z,73.24
2022-10-11T15:25:48.543Z,73.53
2022-10-11T15:28:52.297Z,74.08
2022-10-11T15:31:54.796Z,73.93
2022-10-11T15:34:57.210Z,74.45
2022-10-11T15:38:00.269Z,76.09
2022-10-11T15:41:02.831Z,76.40
2022-10-11T15:44:05.342Z,76.60
2022-10-11T15:47:09.038Z,77.50
2022-10-11T15:50:13.805Z,78.27
2022-10-11T15:53:19.103Z,78.81
2022-10-11T15:56:21.472Z,79.40
2022-10-11T15:59:23.826Z,79.49
2022-10-11T16:02:26.400Z,80.48
2022-10-11T16:05:29.159Z,81.14
2022-10-11T16:08:31.710Z,81.46
2022-10-11T16:11:34.312Z,81.25
2022-10-11T16:14:36.702Z,81.22
2022-10-11T16:17:39.195Z,81.39
2022-10-11T16:20:45.195Z,81.78
2022-10-11T16:23:47.630Z,81.72
2022-10-11T16:26:50.896Z,82.04
2022-10-11T16:29:53.941Z,83.00
2022-10-11T16:32:56.525Z,82.68
2022-10-11T16:36:18.861Z,82.60
2022-10-11T16:39:21.460Z,82.77
2022-10-11T16:42:24.048Z,83.07
2022-10-11T16:45:26.502Z,83.12
2022-10-11T16:48:28.940Z,83.57
2022-10-11T16:51:31.380Z,83.75
2022-10-11T16:54:33.860Z,83.86
2022-10-11T16:57:37.815Z,83.93
2022-10-11T17:00:42.678Z,83.60
2022-10-11T17:03:45.306Z,83.02
2022-10-11T17:06:47.899Z,82.74
2022-10-11T17:09:50.723Z,82.61
2022-10-11T17:12:55.117Z,82.63
2022-10-11T17:15:57.912Z,83.42
2022-10-11T17:19:00.872Z,83.38
2022-10-11T17:22:03.258Z,83.32
2022-10-11T17:25:07.002Z,83.05
2022-10-11T17:28:09.804Z,82.99
2022-10-11T17:31:12.161Z,82.94
2022-10-11T17:34:16.149Z,82.69
2022-10-11T17:37:18.725Z,81.99
2022-10-11T17:40:22.023Z,82.16
2022-10-11T17:43:24.882Z,81.92
2022-10-11T17:46:32.284Z,81.53
2022-10-11T17:49:34.810Z,82.19
2022-10-11T17:52:37.247Z,81.86
2022-10-11T17:55:43.742Z,82.16
2022-10-11T17:58:47.074Z,82.44
2022-10-11T18:01:50.282Z,82.44
2022-10-11T18:04:52.716Z,83.12
2022-10-11T18:07:55.691Z,83.96
2022-10-11T18:10:58.093Z,84.39
2022-10-11T18:14:00.577Z,85.04
2022-10-11T18:17:03.611Z,84.90
2022-10-11T18:20:06.626Z,84.27
2022-10-11T18:23:09.089Z,84.10
2022-10-11T18:26:16.591Z,84.77
2022-10-11T18:29:19.082Z,80.99
2022-10-11T18:32:21.488Z,79.45
2022-10-11T18:35:25.087Z,79.79
2022-10-11T18:38:27.731Z,79.89
2022-10-11T18:41:32.161Z,79.00
2022-10-11T18:44:34.686Z,80.50
2022-10-11T18:47:37.424Z,81.81
2022-10-11T18:50:40.434Z,83.99
2022-10-11T18:53:42.760Z,84.60
2022-10-11T18:56:45.292Z,83.94
2022-10-11T18:59:47.827Z,83.76
2022-10-11T19:02:51.002Z,84.06
2022-10-11T19:05:53.474Z,84.46
2022-10-11T19:09:04.888Z,84.62
2022-10-11T19:12:07.552Z,85.14
2022-10-11T19:15:11.451Z,85.84
2022-10-11T19:18:15.938Z,85.51
2022-10-11T19:21:22.912Z,85.59
2022-10-11T19:24:28.325Z,83.95
2022-10-11T19:27:30.683Z,81.07
2022-10-11T19:30:33.612Z,79.04
2022-10-11T19:33:36.756Z,78.35
2022-10-11T19:36:42.290Z,79.33
2022-10-11T19:39:44.677Z,79.41
2022-10-11T19:42:47.102Z,79.21
2022-10-11T19:45:49.491Z,79.91
2022-10-11T19:48:52.279Z,79.58
2022-10-11T19:51:55.467Z,78.31
2022-10-11T19:54:58.001Z,78.29
2022-10-11T19:58:03.406Z,78.67
2022-10-11T20:01:12.152Z,78.97
2022-10-11T20:04:33.098Z,78.18
2022-10-11T20:07:37.119Z,76.89
2022-10-11T20:10:39.733Z,75.44
2022-10-11T20:13:42.255Z,74.40
2022-10-11T20:16:44.657Z,73.94
2022-10-11T20:19:47.029Z,74.43
2022-10-11T20:22:49.437Z,74.18
2022-10-11T20:26:02.018Z,72.89
2022-10-11T20:29:04.535Z,71.79
2022-10-11T20:32:06.880Z,71.71
2022-10-11T20:35:10.444Z,71.38
2022-10-11T20:38:12.816Z,70.95
2022-10-11T20:41:18.675Z,71.47
2022-10-11T20:44:21.035Z,71.26
2022-10-11T20:47:23.361Z,71.56
2022-10-11T20:50:25.750Z,71.10
2022-10-11T20:53:29.366Z,71.27
2022-10-11T20:56:32.412Z,71.12
2022-10-11T20:59:34.751Z,70.84
2022-10-11T21:02:38.020Z,70.63
2022-10-11T21:05:40.951Z,71.04
2022-10-11T21:08:43.375Z,70.99
2022-10-11T21:11:46.027Z,70.69
2022-10-11T21:14:48.477Z,70.88
2022-10-11T21:17:51.420Z,71.42
2022-10-11T21:20:53.804Z,71.36
2022-10-11T21:24:01.511Z,71.54
2022-10-11T21:27:03.864Z,71.90
2022-10-11T21:30:06.680Z,71.80
2022-10-11T21:33:09.100Z,71.85
2022-10-11T21:36:17.614Z,71.19
2022-10-11T21:39:20.057Z,71.04
2022-10-11T21:42:27.136Z,70.80
2022-10-11T21:45:31.687Z,71.61
2022-10-11T21:48:34.232Z,71.60
2022-10-11T21:51:36.668Z,71.07
2022-10-11T21:54:39.255Z,71.22
2022-10-11T21:57:42.867Z,71.24
2022-10-11T22:00:46.907Z,71.42
2022-10-11T22:03:49.476Z,71.16
2022-10-11T22:06:51.855Z,71.41
2022-10-11T22:09:54.309Z,71.49
2022-10-11T22:12:56.978Z,72.08
2022-10-11T22:16:06.985Z,73.04
2022-10-11T22:19:09.459Z,73.40
2022-10-11T22:22:11.870Z,74.36
2022-10-11T22:25:14.261Z,74.68
2022-10-11T22:28:16.665Z,75.55
2022-10-11T22:31:20.321Z,75.71
2022-10-11T22:34:22.782Z,74.78
2022-10-11T22:37:25.127Z,73.16
2022-10-11T22:40:27.548Z,72.24
2022-10-11T22:43:30.065Z,71.41
2022-10-11T22:46:32.459Z,71.02
2022-10-11T22:49:34.950Z,70.69
2022-10-11T22:52:37.442Z,70.12
2022-10-11T22:55:40.314Z,70.19
2022-10-11T22:58:42.696Z,70.76
2022-10-11T23:01:45.043Z,70.34
2022-10-11T23:04:47.879Z,69.67
2022-10-11T23:07:50.568Z,69.02
2022-10-11T23:10:53.337Z,69.12
2022-10-11T23:13:55.693Z,68.82
2022-10-11T23:16:58.092Z,69.13
2022-10-11T23:20:00.617Z,68.82
2022-10-11T23:23:02.971Z,68.24
2022-10-11T23:26:12.141Z,68.07
2022-10-11T23:29:14.539Z,68.12
2022-10-11T23:32:16.980Z,67.52
2022-10-11T23:35:19.358Z,67.54
2022-10-11T23:38:21.954Z,67.26
2022-10-11T23:41:26.839Z,66.82
2022-10-11T23:44:29.198Z,66.27
2022-10-11T23:47:31.683Z,66.36
2022-10-11T23:50:34.739Z,65.98
2022-10-11T23:53:37.521Z,66.25
2022-10-11T23:56:40.017Z,66.87
2022-10-11T23:59:42.355Z,67.11
